Time;durP1;ratioP1;P1;durP2;ratioP2;P2;SDS_P1;SDS_P2;PMS_P1;PMS_P2;Temp;Humidity;BMP_temperature;BMP_pressure;BME280_temperature;BME280_humidity;BME280_pressure;Samples;Min_cycle;Max_cycle;Signal;HPM_P1;HPM_P2
2021/10/06 00:02:02;;;;;;;;;;;12.30;99.90;;;;;;5068940;28;19985;-85
2021/10/06 00:04:28;;;;;;;;;;;12.30;99.90;;;;;;5067973;28;19946;-85
2021/10/06 00:06:55;;;;;;;;;;;12.30;99.90;;;;;;5071219;28;19957;-85
2021/10/06 00:09:21;;;;;;;;;;;12.30;99.90;;;;;;5072398;28;19957;-85
2021/10/06 00:11:49;;;;;;;;;;;12.40;99.90;;;;;;5072388;28;19970;-85
2021/10/06 00:14:16;;;;;;;;;;;12.40;99.90;;;;;;5071320;28;19950;-85
2021/10/06 00:16:43;;;;;;;;;;;12.30;99.90;;;;;;5069529;28;20373;-85
2021/10/06 00:19:09;;;;;;;;;;;12.40;99.90;;;;;;5068401;28;19952;-85
2021/10/06 00:21:36;;;;;;;;;;;12.40;99.90;;;;;;5069378;28;19972;-85
2021/10/06 00:24:02;;;;;;;;;;;12.40;99.90;;;;;;5068321;28;19975;-86
2021/10/06 00:26:28;;;;;;;;;;;12.40;99.90;;;;;;5068102;28;19960;-85
2021/10/06 00:28:56;;;;;;;;;;;12.40;99.90;;;;;;5067504;28;19946;-86
2021/10/06 00:31:23;;;;;;;;;;;12.30;99.90;;;;;;5066739;28;19964;-86
2021/10/06 00:33:49;;;;;;;;;;;12.30;99.90;;;;;;5064529;28;20005;-86
2021/10/06 00:36:16;;;;;;;;;;;12.30;99.90;;;;;;5066187;28;19958;-86
2021/10/06 00:38:42;;;;;;;;;;;12.20;99.90;;;;;;5065189;28;20002;-86
2021/10/06 00:41:09;;;;;;;;;;;12.20;99.90;;;;;;5066017;28;20009;-85
2021/10/06 00:43:35;;;;;;;;;;;12.20;99.90;;;;;;5070304;28;19999;-84
2021/10/06 00:46:03;;;;;;;;;;;12.20;99.90;;;;;;5067209;28;19954;-85
2021/10/06 00:48:29;;;;;;;;;;;12.30;99.90;;;;;;5065106;28;20001;-85
2021/10/06 00:50:56;;;;;;;;;;;12.10;99.90;;;;;;5060122;28;19969;-86
2021/10/06 00:53:24;;;;;;;;;;;12.10;99.90;;;;;;5059959;28;19952;-85
2021/10/06 00:55:50;;;;;;;;;;;12.10;99.90;;;;;;5073469;28;19936;-85
2021/10/06 00:58:17;;;;;;;;;;;12.20;99.90;;;;;;5079151;28;19976;-86
2021/10/06 01:00:43;;;;;;;;;;;12.20;99.90;;;;;;5078884;28;19992;-85
2021/10/06 01:03:11;;;;;;;;;;;12.20;99.90;;;;;;5071335;28;20021;-86
2021/10/06 01:05:37;;;;;;;;;;;12.10;99.90;;;;;;5070548;28;19948;-86
2021/10/06 01:08:05;;;;;;;;;;;12.10;99.90;;;;;;5076884;28;19939;-86
2021/10/06 01:10:31;;;;;;;;;;;12.00;99.90;;;;;;5079301;28;19964;-84
2021/10/06 01:12:58;;;;;;;;;;;11.90;99.90;;;;;;5078558;28;19945;-85
2021/10/06 01:15:25;;;;;;;;;;;11.90;99.90;;;;;;5077757;28;19934;-85
2021/10/06 01:17:51;;;;;;;;;;;11.80;99.90;;;;;;5073222;28;20415;-85
2021/10/06 01:20:19;;;;;;;;;;;11.80;99.90;;;;;;5069111;28;19968;-85
2021/10/06 01:22:47;;;;;;;;;;;11.80;99.90;;;;;;5066175;28;19964;-86
2021/10/06 01:25:15;;;;;;;;;;;11.90;99.90;;;;;;5063374;28;20003;-85
2021/10/06 01:27:41;;;;;;;;;;;11.90;99.90;;;;;;5060438;28;19958;-86
2021/10/06 01:30:09;;;;;;;;;;;11.90;99.90;;;;;;5058931;28;20414;-86
2021/10/06 01:32:37;;;;;;;;;;;11.90;99.90;;;;;;5057716;28;19999;-85
2021/10/06 01:35:04;;;;;;;;;;;12.00;99.90;;;;;;5057411;28;20485;-85
2021/10/06 01:37:31;;;;;;;;;;;12.00;99.90;;;;;;5057061;28;19993;-85
2021/10/06 01:39:59;;;;;;;;;;;12.00;99.90;;;;;;5057168;28;19995;-86
2021/10/06 01:42:26;;;;;;;;;;;12.00;99.90;;;;;;5057424;28;19948;-85
2021/10/06 01:44:52;;;;;;;;;;;12.00;99.90;;;;;;5058291;28;20417;-86
2021/10/06 01:47:19;;;;;;;;;;;12.10;99.90;;;;;;5057205;28;20372;-85
2021/10/06 01:49:47;;;;;;;;;;;12.10;99.90;;;;;;5057507;28;19953;-86
2021/10/06 01:52:15;;;;;;;;;;;12.20;99.90;;;;;;5057334;28;20085;-85
2021/10/06 01:54:42;;;;;;;;;;;12.20;99.90;;;;;;5058801;28;19973;-86
2021/10/06 01:57:10;;;;;;;;;;;12.30;99.90;;;;;;5064363;28;19947;-85
2021/10/06 01:59:36;;;;;;;;;;;12.40;99.90;;;;;;5070613;28;19949;-85
2021/10/06 02:02:03;;;;;;;;;;;12.40;99.90;;;;;;5074244;28;19973;-85
2021/10/06 02:04:30;;;;;;;;;;;12.40;99.90;;;;;;5072305;28;19971;-84
2021/10/06 02:06:56;;;;;;;;;;;12.40;99.90;;;;;;5074482;28;19949;-84
2021/10/06 02:09:22;;;;;;;;;;;12.40;99.90;;;;;;5070325;28;19968;-85
2021/10/06 02:11:50;;;;;;;;;;;12.40;99.90;;;;;;5061705;28;20001;-86
2021/10/06 02:14:18;;;;;;;;;;;12.50;99.90;;;;;;5058032;28;19954;-85
2021/10/06 02:16:45;;;;;;;;;;;12.50;99.90;;;;;;5056634;28;20463;-85
2021/10/06 02:19:11;;;;;;;;;;;12.50;99.90;;;;;;5057018;28;20043;-86
2021/10/06 02:21:38;;;;;;;;;;;12.50;99.90;;;;;;5056353;28;19967;-85
2021/10/06 02:24:05;;;;;;;;;;;12.50;99.90;;;;;;5056043;28;19998;-86
2021/10/06 02:26:32;;;;;;;;;;;12.50;99.90;;;;;;5056033;28;20281;-85
2021/10/06 02:28:58;;;;;;;;;;;12.50;99.90;;;;;;5056104;28;19971;-86
2021/10/06 02:31:26;;;;;;;;;;;12.50;99.90;;;;;;5058981;28;20474;-86
2021/10/06 02:33:52;;;;;;;;;;;12.50;99.90;;;;;;5059908;28;19951;-86
2021/10/06 02:36:19;;;;;;;;;;;12.50;99.90;;;;;;5059943;28;20015;-86
2021/10/06 02:38:45;;;;;;;;;;;12.50;99.90;;;;;;5059653;28;20002;-86
2021/10/06 02:41:12;;;;;;;;;;;12.50;99.90;;;;;;5059015;28;20014;-86
2021/10/06 02:43:38;;;;;;;;;;;12.50;99.90;;;;;;5059794;28;19946;-86
2021/10/06 02:46:05;;;;;;;;;;;12.50;99.90;;;;;;5060122;28;20472;-86
2021/10/06 02:48:32;;;;;;;;;;;12.50;99.90;;;;;;5060008;28;19993;-86
2021/10/06 02:50:59;;;;;;;;;;;12.50;99.90;;;;;;5059722;28;20009;-86
2021/10/06 02:53:25;;;;;;;;;;;12.50;99.90;;;;;;5063680;28;19950;-86
2021/10/06 02:55:52;;;;;;;;;;;12.60;99.90;;;;;;5064864;28;19953;-87
2021/10/06 02:58:18;;;;;;;;;;;12.60;99.90;;;;;;5062375;28;20025;-86
2021/10/06 03:00:45;;;;;;;;;;;12.60;99.90;;;;;;5062603;28;19997;-86
2021/10/06 03:03:11;;;;;;;;;;;12.70;99.90;;;;;;5060958;28;19956;-86
2021/10/06 03:05:39;;;;;;;;;;;12.70;99.90;;;;;;5059663;28;19980;-87
2021/10/06 03:08:05;;;;;;;;;;;12.70;99.90;;;;;;5059747;28;19951;-87
2021/10/06 03:10:32;;;;;;;;;;;12.70;99.90;;;;;;5059191;28;20012;-87
2021/10/06 03:12:58;;;;;;;;;;;12.70;99.90;;;;;;5060217;28;19946;-86
2021/10/06 03:15:25;;;;;;;;;;;12.80;99.90;;;;;;5072020;28;19956;-86
2021/10/06 03:17:51;;;;;;;;;;;12.80;99.90;;;;;;5060517;28;19985;-86
2021/10/06 03:20:18;;;;;;;;;;;12.80;99.90;;;;;;5059657;28;19981;-86
2021/10/06 03:22:45;;;;;;;;;;;12.90;99.90;;;;;;5059628;28;19960;-87
2021/10/06 03:25:12;;;;;;;;;;;12.90;99.90;;;;;;5059046;28;20374;-86
2021/10/06 03:27:38;;;;;;;;;;;12.90;99.90;;;;;;5058984;28;19948;-86
2021/10/06 03:30:07;;;;;;;;;;;12.90;99.90;;;;;;5059460;28;19987;-86
2021/10/06 03:32:34;;;;;;;;;;;12.90;99.90;;;;;;5060177;28;19981;-86
2021/10/06 03:35:00;;;;;;;;;;;12.90;99.90;;;;;;5059330;28;20391;-86
2021/10/06 03:37:27;;;;;;;;;;;12.90;99.90;;;;;;5058978;28;19976;-86
2021/10/06 03:39:54;;;;;;;;;;;12.90;99.90;;;;;;5058594;28;19953;-85
2021/10/06 03:42:21;;;;;;;;;;;12.90;99.90;;;;;;5057669;28;19996;-86
2021/10/06 03:44:48;;;;;;;;;;;12.90;99.90;;;;;;5057719;28;20403;-87
2021/10/06 03:47:14;;;;;;;;;;;12.90;99.90;;;;;;5057778;28;20440;-86
2021/10/06 03:49:41;;;;;;;;;;;12.90;99.90;;;;;;5057233;28;19997;-86
2021/10/06 03:52:07;;;;;;;;;;;12.90;99.90;;;;;;5058918;28;20016;-86
2021/10/06 03:54:34;;;;;;;;;;;13.00;99.90;;;;;;5079777;28;19933;-86
2021/10/06 03:57:01;;;;;;;;;;;13.00;99.90;;;;;;5081201;28;19951;-85
2021/10/06 03:59:28;;;;;;;;;;;13.00;99.90;;;;;;5081340;28;19961;-85
2021/10/06 04:01:54;;;;;;;;;;;13.00;99.90;;;;;;5081169;28;19967;-85
2021/10/06 04:04:21;;;;;;;;;;;13.00;99.90;;;;;;5081242;28;19979;-85
2021/10/06 04:06:47;;;;;;;;;;;13.10;99.90;;;;;;5070359;28;19952;-86
2021/10/06 04:09:14;;;;;;;;;;;13.00;99.90;;;;;;5060048;28;20007;-86
2021/10/06 04:11:40;;;;;;;;;;;13.00;99.90;;;;;;5064839;28;19976;-86
2021/10/06 04:14:08;;;;;;;;;;;13.00;99.90;;;;;;5076279;28;19956;-86
2021/10/06 04:16:35;;;;;;;;;;;13.00;99.90;;;;;;5070756;28;19948;-87
2021/10/06 04:19:01;;;;;;;;;;;13.00;99.90;;;;;;5059772;28;19948;-86
2021/10/06 04:21:35;;;;;;;;;;;13.00;99.90;;;;;;5085800;22;19972;-85
2021/10/06 04:24:15;;;;;;;;;;;13.40;99.90;;;;;;5059657;28;19983;-87
2021/10/06 04:26:59;;;;;;;;;;;13.10;99.90;;;;;;5059456;28;19952;-87
2021/10/06 04:35:09;;;;;;;;;;;14.50;99.90;;;;;;5058655;28;19942;-87
2021/10/06 04:40:48;;;;;;;;;;;13.10;99.90;;;;;;5056698;28;19958;-87
2021/10/06 04:46:39;;;;;;;;;;;13.60;99.90;;;;;;5053876;28;19951;-87
2021/10/06 04:49:33;;;;;;;;;;;15.20;99.90;;;;;;5051922;28;19962;-87
2021/10/06 04:55:39;;;;;;;;;;;13.20;99.90;;;;;;5058106;28;19990;-87
2021/10/06 04:58:25;;;;;;;;;;;13.00;99.90;;;;;;5034101;28;19936;-87
2021/10/06 05:01:18;;;;;;;;;;;15.60;99.90;;;;;;5184035;22;19974;-87
2021/10/06 05:04:02;;;;;;;;;;;14.40;99.90;;;;;;5063289;28;19941;-87
2021/10/06 05:06:35;;;;;;;;;;;13.30;99.90;;;;;;5078665;28;19936;-87
2021/10/06 05:12:07;;;;;;;;;;;12.90;99.90;;;;;;5054791;28;20126;-88
2021/10/06 05:14:34;;;;;;;;;;;14.30;99.90;;;;;;5113120;22;20037;-84
2021/10/06 05:17:03;;;;;;;;;;;12.90;99.90;;;;;;5079011;28;19939;-85
2021/10/06 05:19:29;;;;;;;;;;;12.90;99.90;;;;;;5078451;28;19951;-86
2021/10/06 05:21:56;;;;;;;;;;;12.90;99.90;;;;;;5077682;28;19966;-85
2021/10/06 05:24:23;;;;;;;;;;;12.90;99.90;;;;;;5077965;28;19956;-86
2021/10/06 05:26:49;;;;;;;;;;;13.00;99.90;;;;;;5078691;28;19988;-86
2021/10/06 05:29:16;;;;;;;;;;;12.80;99.90;;;;;;5079027;28;19949;-85
2021/10/06 05:31:42;;;;;;;;;;;12.70;99.90;;;;;;5078165;28;19950;-85
2021/10/06 05:34:10;;;;;;;;;;;12.80;99.90;;;;;;5077722;28;20080;-86
2021/10/06 05:36:36;;;;;;;;;;;12.70;99.90;;;;;;5077711;28;19979;-86
2021/10/06 05:39:03;;;;;;;;;;;12.70;99.90;;;;;;5078459;28;19935;-86
2021/10/06 05:41:30;;;;;;;;;;;12.60;99.90;;;;;;5078984;28;19956;-86
2021/10/06 05:43:56;;;;;;;;;;;12.50;99.90;;;;;;5078711;28;19934;-87
2021/10/06 05:46:26;;;;;;;;;;;12.60;99.90;;;;;;5078758;28;19959;-85
2021/10/06 05:48:52;;;;;;;;;;;12.60;99.90;;;;;;5076999;28;19968;-86
2021/10/06 05:51:20;;;;;;;;;;;12.70;99.90;;;;;;5076819;28;19956;-86
2021/10/06 05:53:47;;;;;;;;;;;12.70;99.90;;;;;;5076983;28;19945;-86
2021/10/06 05:56:13;;;;;;;;;;;12.70;99.90;;;;;;5069824;28;19971;-86
2021/10/06 05:58:40;;;;;;;;;;;12.70;99.90;;;;;;5069215;28;19931;-86
2021/10/06 06:01:06;;;;;;;;;;;12.70;99.90;;;;;;5069746;28;20009;-86
2021/10/06 06:03:33;;;;;;;;;;;12.60;99.90;;;;;;5068010;28;19964;-84
2021/10/06 06:05:59;;;;;;;;;;;12.60;99.90;;;;;;5069726;28;19963;-86
2021/10/06 06:08:27;;;;;;;;;;;12.60;99.90;;;;;;5071035;28;19949;-86
2021/10/06 06:10:54;;;;;;;;;;;12.60;99.90;;;;;;5070183;28;19949;-86
2021/10/06 06:13:20;;;;;;;;;;;12.60;99.90;;;;;;5069057;28;19960;-86
2021/10/06 06:15:51;;;;;;;;;;;12.50;99.90;;;;;;5062268;28;19990;-86
2021/10/06 06:18:18;;;;;;;;;;;12.50;99.90;;;;;;5065899;28;19944;-85
2021/10/06 06:20:45;;;;;;;;;;;12.40;99.90;;;;;;5074950;28;19950;-85
2021/10/06 06:23:11;;;;;;;;;;;12.50;99.90;;;;;;5073830;28;19959;-86
2021/10/06 06:25:39;;;;;;;;;;;12.60;99.90;;;;;;5070967;28;19965;-86
2021/10/06 06:28:06;;;;;;;;;;;12.50;99.90;;;;;;5072333;28;19970;-86
2021/10/06 06:30:32;;;;;;;;;;;12.60;99.90;;;;;;5067721;28;19993;-84
2021/10/06 06:32:59;;;;;;;;;;;12.60;99.90;;;;;;5065689;28;19945;-86
2021/10/06 06:35:25;;;;;;;;;;;12.60;99.90;;;;;;5063837;28;19965;-86
2021/10/06 06:37:52;;;;;;;;;;;12.60;99.90;;;;;;5063459;28;19949;-86
2021/10/06 06:40:18;;;;;;;;;;;12.60;99.90;;;;;;5060897;28;19952;-86
2021/10/06 06:42:46;;;;;;;;;;;12.60;99.90;;;;;;5061542;28;19962;-86
2021/10/06 06:45:13;;;;;;;;;;;12.70;99.90;;;;;;5072236;28;19967;-86
2021/10/06 06:47:41;;;;;;;;;;;12.70;99.90;;;;;;5074432;28;19985;-86
2021/10/06 06:50:08;;;;;;;;;;;12.70;99.90;;;;;;5077749;28;19937;-85
2021/10/06 06:52:35;;;;;;;;;;;12.80;99.90;;;;;;5072814;28;19947;-85
2021/10/06 06:55:01;;;;;;;;;;;12.80;99.90;;;;;;5062439;28;19965;-86
2021/10/06 06:57:28;;;;;;;;;;;12.80;99.90;;;;;;5062899;28;19969;-85
2021/10/06 06:59:56;;;;;;;;;;;12.90;99.90;;;;;;5060029;28;19979;-86
2021/10/06 07:02:22;;;;;;;;;;;13.00;99.90;;;;;;5060277;28;19953;-86
2021/10/06 07:04:49;;;;;;;;;;;13.00;99.90;;;;;;5059696;28;19962;-86
2021/10/06 07:07:15;;;;;;;;;;;13.00;99.90;;;;;;5058966;28;19950;-87
2021/10/06 07:09:48;;;;;;;;;;;13.10;99.90;;;;;;5059141;28;19949;-86
2021/10/06 07:12:14;;;;;;;;;;;13.10;99.90;;;;;;5058546;28;19985;-86
2021/10/06 07:14:41;;;;;;;;;;;13.10;99.90;;;;;;5058279;28;20394;-86
2021/10/06 07:17:09;;;;;;;;;;;13.10;99.90;;;;;;5058975;28;20046;-86
2021/10/06 07:19:36;;;;;;;;;;;13.20;99.90;;;;;;5062561;28;19948;-86
2021/10/06 07:22:03;;;;;;;;;;;13.20;99.90;;;;;;5062733;28;19992;-86
2021/10/06 07:24:29;;;;;;;;;;;13.20;99.90;;;;;;5063710;28;20334;-85
2021/10/06 07:26:56;;;;;;;;;;;13.20;99.90;;;;;;5062093;28;20390;-86
2021/10/06 07:29:22;;;;;;;;;;;13.20;99.90;;;;;;5063342;28;19960;-86
2021/10/06 07:31:49;;;;;;;;;;;13.20;99.90;;;;;;5065032;28;19948;-85
2021/10/06 07:34:17;;;;;;;;;;;13.30;99.90;;;;;;5062404;28;20022;-85
2021/10/06 07:36:43;;;;;;;;;;;13.30;99.90;;;;;;5063168;28;19946;-86
2021/10/06 07:39:10;;;;;;;;;;;13.30;99.90;;;;;;5064281;28;19971;-87
2021/10/06 07:41:37;;;;;;;;;;;13.30;99.90;;;;;;5063018;28;20362;-86
2021/10/06 07:44:03;;;;;;;;;;;13.40;99.90;;;;;;5063271;28;20378;-86
2021/10/06 07:46:30;;;;;;;;;;;13.40;99.90;;;;;;5065153;28;19994;-86
2021/10/06 07:48:57;;;;;;;;;;;13.40;99.90;;;;;;5061641;28;19945;-86
2021/10/06 07:51:24;;;;;;;;;;;13.30;99.90;;;;;;5069799;28;19954;-84
2021/10/06 07:53:51;;;;;;;;;;;13.50;99.90;;;;;;5069167;28;19976;-88
2021/10/06 07:56:18;;;;;;;;;;;13.50;99.90;;;;;;5063985;28;19975;-87
2021/10/06 07:58:44;;;;;;;;;;;13.50;99.90;;;;;;5068793;28;19953;-87
2021/10/06 08:01:11;;;;;;;;;;;13.50;99.90;;;;;;5072382;28;20306;-87
2021/10/06 08:03:37;;;;;;;;;;;13.40;99.90;;;;;;5063653;28;19966;-87
2021/10/06 08:06:04;;;;;;;;;;;13.50;99.90;;;;;;5062750;28;20365;-87
2021/10/06 08:08:32;;;;;;;;;;;13.50;99.90;;;;;;5062823;28;20313;-87
2021/10/06 08:10:59;;;;;;;;;;;13.60;99.90;;;;;;5063352;28;19963;-87
2021/10/06 08:13:26;;;;;;;;;;;13.50;99.90;;;;;;5061941;28;19945;-87
2021/10/06 08:15:52;;;;;;;;;;;13.60;99.90;;;;;;5061602;28;19972;-87
2021/10/06 08:18:20;;;;;;;;;;;13.70;99.90;;;;;;5063559;28;19946;-86
2021/10/06 08:20:47;;;;;;;;;;;13.70;99.90;;;;;;5064247;28;19952;-87
2021/10/06 08:23:15;;;;;;;;;;;13.80;99.90;;;;;;5065159;28;19971;-87
2021/10/06 08:25:43;;;;;;;;;;;13.80;99.90;;;;;;5074304;28;20055;-84
2021/10/06 08:28:10;;;;;;;;;;;13.90;99.90;;;;;;5074195;28;19947;-88
2021/10/06 08:30:36;;;;;;;;;;;13.90;99.90;;;;;;5076087;28;19947;-86
2021/10/06 08:33:03;;;;;;;;;;;13.90;99.90;;;;;;5074400;28;19930;-85
2021/10/06 08:35:29;;;;;;;;;;;14.00;99.90;;;;;;5073608;28;19966;-85
2021/10/06 08:37:56;;;;;;;;;;;14.00;99.90;;;;;;5075661;28;19950;-85
2021/10/06 08:40:22;;;;;;;;;;;14.10;99.90;;;;;;5072165;28;19945;-86
2021/10/06 08:42:50;;;;;;;;;;;14.20;99.90;;;;;;5070474;28;19968;-87
2021/10/06 08:45:17;;;;;;;;;;;14.30;99.90;;;;;;5067581;28;19969;-87
2021/10/06 08:47:43;;;;;;;;;;;14.30;99.90;;;;;;5065288;28;19953;-85
2021/10/06 08:50:11;;;;;;;;;;;14.30;99.90;;;;;;5072943;28;19947;-85
2021/10/06 08:52:38;;;;;;;;;;;14.30;99.90;;;;;;5063042;28;19947;-86
2021/10/06 08:55:05;;;;;;;;;;;14.40;99.90;;;;;;5058007;28;19965;-86
2021/10/06 08:57:32;;;;;;;;;;;14.40;99.90;;;;;;5058632;28;19951;-86
2021/10/06 09:00:00;;;;;;;;;;;14.40;99.90;;;;;;5067700;28;19946;-85
2021/10/06 09:02:26;;;;;;;;;;;14.50;99.90;;;;;;5063070;28;19949;-87
2021/10/06 09:04:53;;;;;;;;;;;14.60;99.90;;;;;;5063460;28;19962;-86
2021/10/06 09:07:19;;;;;;;;;;;14.60;99.90;;;;;;5064743;28;19949;-86
2021/10/06 09:09:47;;;;;;;;;;;15.30;99.90;;;;;;5061563;28;19953;-86
2021/10/06 09:12:14;;;;;;;;;;;14.70;99.90;;;;;;5062589;28;19941;-85
2021/10/06 09:14:43;;;;;;;;;;;14.80;99.90;;;;;;5064538;28;20018;-85
2021/10/06 09:17:11;;;;;;;;;;;14.80;99.90;;;;;;5075015;28;20017;-84
2021/10/06 09:19:39;;;;;;;;;;;14.90;99.90;;;;;;5070463;28;19944;-86
2021/10/06 09:22:11;;;;;;;;;;;14.90;99.90;;;;;;5067184;28;20427;-87
2021/10/06 09:24:52;;;;;;;;;;;14.90;99.90;;;;;;5066033;28;19972;-87
2021/10/06 09:27:19;;;;;;;;;;;15.00;99.90;;;;;;5064404;28;19949;-86
2021/10/06 09:29:50;;;;;;;;;;;17.00;99.90;;;;;;5063870;28;19948;-87
2021/10/06 09:32:25;;;;;;;;;;;15.00;99.90;;;;;;5064396;28;19949;-86
2021/10/06 09:35:02;;;;;;;;;;;15.00;99.90;;;;;;5063980;28;19963;-88
2021/10/06 09:37:29;;;;;;;;;;;15.00;99.90;;;;;;5062670;28;19954;-87
2021/10/06 09:39:56;;;;;;;;;;;15.10;99.90;;;;;;5060318;28;19947;-87
2021/10/06 09:42:23;;;;;;;;;;;15.10;99.90;;;;;;5074485;28;19942;-86
2021/10/06 09:44:53;;;;;;;;;;;15.20;99.90;;;;;;5078934;28;19978;-87
2021/10/06 09:47:19;;;;;;;;;;;15.20;99.90;;;;;;5079193;28;19957;-87
2021/10/06 09:49:52;;;;;;;;;;;15.20;99.90;;;;;;5079005;28;19972;-87
2021/10/06 09:52:20;;;;;;;;;;;15.20;99.90;;;;;;5079193;28;19957;-84
2021/10/06 09:54:48;;;;;;;;;;;15.20;99.90;;;;;;5079161;28;19973;-86
2021/10/06 09:57:21;;;;;;;;;;;15.20;99.90;;;;;;5079218;28;20004;-86
2021/10/06 09:59:48;;;;;;;;;;;15.20;99.90;;;;;;5078379;28;19926;-86
2021/10/06 10:02:14;;;;;;;;;;;15.20;99.90;;;;;;5060827;28;20001;-86
2021/10/06 10:04:41;;;;;;;;;;;15.20;99.90;;;;;;5061590;28;19968;-87
2021/10/06 10:07:09;;;;;;;;;;;15.40;99.90;;;;;;5061338;28;19999;-87
2021/10/06 10:09:36;;;;;;;;;;;15.40;99.90;;;;;;5062774;28;19953;-87
2021/10/06 10:12:02;;;;;;;;;;;15.40;99.90;;;;;;5071286;28;19954;-85
2021/10/06 10:14:29;;;;;;;;;;;15.40;99.90;;;;;;5059265;28;19970;-85
2021/10/06 10:16:56;;;;;;;;;;;15.40;99.90;;;;;;5062394;28;19944;-86
2021/10/06 10:19:26;;;;;;;;;;;15.50;99.90;;;;;;5060641;28;19946;-86
2021/10/06 10:21:56;;;;;;;;;;;15.70;99.90;;;;;;5064334;28;19967;-87
2021/10/06 10:24:24;;;;;;;;;;;15.90;99.90;;;;;;5072210;28;19991;-87
2021/10/06 10:26:58;;;;;;;;;;;15.90;99.90;;;;;;5072187;28;19959;-86
2021/10/06 10:29:35;;;;;;;;;;;16.00;99.90;;;;;;5072643;28;19977;-85
2021/10/06 10:32:02;;;;;;;;;;;16.00;99.90;;;;;;5071185;28;19973;-86
2021/10/06 10:34:43;;;;;;;;;;;16.00;99.90;;;;;;5072310;28;19967;-86
2021/10/06 10:37:10;;;;;;;;;;;16.00;99.90;;;;;;5074860;28;19955;-86
2021/10/06 10:39:51;;;;;;;;;;;16.00;99.90;;;;;;5063217;28;19949;-86
2021/10/06 10:42:18;;;;;;;;;;;16.00;99.90;;;;;;5059737;28;19972;-86
2021/10/06 10:44:46;;;;;;;;;;;16.00;99.90;;;;;;5059834;28;19976;-86
2021/10/06 10:47:13;;;;;;;;;;;16.20;99.90;;;;;;5061840;28;20313;-86
2021/10/06 10:49:43;;;;;;;;;;;16.20;99.90;;;;;;5062768;28;19957;-86
2021/10/06 10:52:09;;;;;;;;;;;16.30;99.90;;;;;;5069014;28;19952;-86
2021/10/06 10:54:37;;;;;;;;;;;16.40;99.90;;;;;;5072827;28;20022;-87
2021/10/06 10:57:18;;;;;;;;;;;16.50;99.90;;;;;;5074993;28;19940;-87
2021/10/06 10:59:45;;;;;;;;;;;16.50;99.90;;;;;;5080361;28;19970;-84
2021/10/06 11:02:16;;;;;;;;;;;16.50;99.90;;;;;;5080498;28;19934;-84
2021/10/06 11:04:45;;;;;;;;;;;16.50;99.90;;;;;;5079106;28;19990;-86
2021/10/06 11:07:17;;;;;;;;;;;16.40;99.90;;;;;;5079605;28;19935;-85
2021/10/06 11:09:45;;;;;;;;;;;16.40;99.90;;;;;;5078735;28;19932;-84
2021/10/06 11:12:32;;;;;;;;;;;16.40;99.90;;;;;;5078968;28;19958;-86
2021/10/06 11:18:22;;;;;;;;;;;16.70;99.90;;;;;;5062498;28;19990;-88
2021/10/06 11:21:16;;;;;;;;;;;17.60;99.90;;;;;;5061866;28;19952;-88
2021/10/06 11:23:53;;;;;;;;;;;16.90;99.90;;;;;;5047862;28;19964;-88
2021/10/06 11:26:33;;;;;;;;;;;;;;;;;;;;;
2021/10/06 11:29:24;;;;;;;;;;;16.20;99.90;;;;;;5062052;28;19956;-88
2021/10/06 11:32:15;;;;;;;;;;;16.70;99.90;;;;;;5055211;28;19946;-88
2021/10/06 11:43:23;;;;;;;;;;;16.40;99.90;;;;;;5057762;28;20027;-88
2021/10/06 11:49:16;;;;;;;;;;;17.60;99.90;;;;;;5018221;28;19957;-87
2021/10/06 11:51:51;;;;;;;;;;;16.40;99.90;;;;;;5078833;28;19935;-88
2021/10/06 11:54:34;;;;;;;;;;;16.00;99.90;;;;;;5076483;28;19948;-88
2021/10/06 11:57:13;;;;;;;;;;;16.40;99.90;;;;;;5069605;28;19948;-87
2021/10/06 12:06:04;;;;;;;;;;;16.30;99.90;;;;;;5058835;28;19961;-89
2021/10/06 12:09:09;;;;;;;;;;;;;;;;;;;;;
2021/10/06 12:12:14;;;;;;;;;;;16.50;99.90;;;;;;5061533;28;20296;-88
2021/10/06 12:15:00;;;;;;;;;;;16.40;99.90;;;;;;5069255;22;19984;-87
2021/10/06 12:26:23;;;;;;;;;;;15.20;99.90;;;;;;5039721;28;19971;-88
2021/10/06 12:28:53;;;;;;;;;;;16.20;99.90;;;;;;5085875;22;20018;-87
2021/10/06 12:31:21;;;;;;;;;;;16.40;99.90;;;;;;5065113;28;20086;-86
2021/10/06 12:33:47;;;;;;;;;;;16.30;99.90;;;;;;5063589;28;19945;-86
2021/10/06 12:36:13;;;;;;;;;;;16.30;99.90;;;;;;5065259;28;20402;-85
2021/10/06 12:38:41;;;;;;;;;;;16.20;99.90;;;;;;5064155;28;19986;-85
2021/10/06 12:41:11;;;;;;;;;;;16.20;99.90;;;;;;5063735;28;19996;-86
2021/10/06 12:43:42;;;;;;;;;;;16.10;99.90;;;;;;5069230;28;19961;-85
2021/10/06 12:46:11;;;;;;;;;;;16.10;99.90;;;;;;5068151;28;20008;-86
2021/10/06 12:48:39;;;;;;;;;;;16.20;99.90;;;;;;5064835;28;20048;-86
2021/10/06 12:51:06;;;;;;;;;;;16.30;99.90;;;;;;5065141;28;19970;-86
2021/10/06 12:53:33;;;;;;;;;;;16.10;99.90;;;;;;5065571;28;19993;-86
2021/10/06 12:56:01;;;;;;;;;;;16.40;99.90;;;;;;5071997;28;19994;-86
2021/10/06 12:58:27;;;;;;;;;;;16.40;99.90;;;;;;5067023;28;19963;-86
2021/10/06 13:00:54;;;;;;;;;;;16.40;99.90;;;;;;5075734;28;19947;-85
2021/10/06 13:03:20;;;;;;;;;;;16.40;99.90;;;;;;5073452;28;19952;-85
2021/10/06 13:05:47;;;;;;;;;;;16.40;99.90;;;;;;5070170;28;19970;-85
2021/10/06 13:08:14;;;;;;;;;;;16.50;99.90;;;;;;5072960;28;19966;-86
2021/10/06 13:10:40;;;;;;;;;;;16.50;99.90;;;;;;5071272;28;19946;-86
2021/10/06 13:13:08;;;;;;;;;;;16.60;99.90;;;;;;5072515;28;19947;-86
2021/10/06 13:15:35;;;;;;;;;;;16.50;99.90;;;;;;5069567;28;19948;-86
2021/10/06 13:18:02;;;;;;;;;;;16.60;99.90;;;;;;5068420;28;20070;-86
2021/10/06 13:20:28;;;;;;;;;;;16.60;99.90;;;;;;5065892;28;19950;-86
2021/10/06 13:22:55;;;;;;;;;;;16.60;99.90;;;;;;5065027;28;19948;-86
2021/10/06 13:25:21;;;;;;;;;;;16.50;99.90;;;;;;5064227;28;20033;-86
2021/10/06 13:27:48;;;;;;;;;;;16.50;99.90;;;;;;5063641;28;19952;-86
2021/10/06 13:30:16;;;;;;;;;;;16.40;99.90;;;;;;5062204;28;19948;-86
2021/10/06 13:32:42;;;;;;;;;;;16.40;99.90;;;;;;5063602;28;20249;-86
2021/10/06 13:35:09;;;;;;;;;;;16.40;99.90;;;;;;5073158;28;19932;-86
2021/10/06 13:37:36;;;;;;;;;;;16.40;99.90;;;;;;5077541;28;19971;-85
2021/10/06 13:40:02;;;;;;;;;;;16.40;99.90;;;;;;5076880;28;19945;-85
2021/10/06 13:42:29;;;;;;;;;;;16.20;99.90;;;;;;5072087;28;19948;-85
2021/10/06 13:44:56;;;;;;;;;;;16.30;99.90;;;;;;5065372;28;19968;-86
2021/10/06 13:47:24;;;;;;;;;;;16.20;99.90;;;;;;5064503;28;19946;-87
2021/10/06 13:49:50;;;;;;;;;;;16.20;99.90;;;;;;5065401;28;19973;-86
2021/10/06 13:52:17;;;;;;;;;;;16.10;99.90;;;;;;5064529;28;19958;-86
2021/10/06 13:54:44;;;;;;;;;;;16.10;99.90;;;;;;5075453;28;19954;-85
2021/10/06 13:57:10;;;;;;;;;;;16.10;99.90;;;;;;5074381;28;19987;-84
2021/10/06 13:59:37;;;;;;;;;;;16.10;99.90;;;;;;5077328;28;19965;-85
2021/10/06 14:02:04;;;;;;;;;;;16.10;99.90;;;;;;5076105;28;19943;-85
2021/10/06 14:04:31;;;;;;;;;;;16.10;99.90;;;;;;5078050;28;19967;-85
2021/10/06 14:06:58;;;;;;;;;;;16.20;99.90;;;;;;5078506;28;19930;-86
2021/10/06 14:09:25;;;;;;;;;;;16.20;99.90;;;;;;5077508;28;19964;-86
2021/10/06 14:11:51;;;;;;;;;;;16.20;99.90;;;;;;5076253;28;19933;-86
2021/10/06 14:14:18;;;;;;;;;;;16.30;99.90;;;;;;5078505;28;19975;-86
2021/10/06 14:16:44;;;;;;;;;;;16.40;99.90;;;;;;5076280;28;19956;-85
2021/10/06 14:19:11;;;;;;;;;;;16.50;99.90;;;;;;5077111;28;19964;-86
2021/10/06 14:21:39;;;;;;;;;;;16.50;99.90;;;;;;5071001;28;19969;-86
2021/10/06 14:24:05;;;;;;;;;;;16.50;99.90;;;;;;5070748;28;19948;-85
2021/10/06 14:26:32;;;;;;;;;;;16.40;99.90;;;;;;5069987;28;19946;-86
2021/10/06 14:28:58;;;;;;;;;;;16.40;99.90;;;;;;5068174;28;19972;-86
2021/10/06 14:31:27;;;;;;;;;;;16.30;99.90;;;;;;5073769;28;19967;-84
2021/10/06 14:33:53;;;;;;;;;;;16.20;99.90;;;;;;5079292;28;19948;-84
2021/10/06 14:36:20;;;;;;;;;;;16.20;99.90;;;;;;5079299;28;19945;-85
2021/10/06 14:38:48;;;;;;;;;;;16.20;99.90;;;;;;5069991;28;19972;-85
2021/10/06 14:41:14;;;;;;;;;;;16.20;99.90;;;;;;5066542;28;20003;-87
2021/10/06 14:43:41;;;;;;;;;;;16.20;99.90;;;;;;5067541;28;20004;-86
2021/10/06 14:46:07;;;;;;;;;;;16.20;99.90;;;;;;5067239;28;19986;-87
2021/10/06 14:48:35;;;;;;;;;;;16.10;99.90;;;;;;5066859;28;20323;-86
2021/10/06 14:51:03;;;;;;;;;;;16.00;99.90;;;;;;5066776;28;19994;-85
2021/10/06 14:53:29;;;;;;;;;;;16.00;99.90;;;;;;5069321;28;19999;-85
2021/10/06 14:55:57;;;;;;;;;;;16.00;99.90;;;;;;5066014;28;19960;-87
2021/10/06 14:58:24;;;;;;;;;;;15.90;99.90;;;;;;5066027;28;20511;-87
2021/10/06 15:00:51;;;;;;;;;;;15.90;99.90;;;;;;5065640;28;19967;-85
2021/10/06 15:03:18;;;;;;;;;;;15.80;99.90;;;;;;5071005;28;19948;-85
2021/10/06 15:05:49;;;;;;;;;;;15.80;99.90;;;;;;5077894;28;19963;-86
2021/10/06 15:08:15;;;;;;;;;;;15.70;99.90;;;;;;5078653;28;19965;-84
2021/10/06 15:10:43;;;;;;;;;;;15.70;99.90;;;;;;5072884;28;20011;-86
2021/10/06 15:13:11;;;;;;;;;;;15.70;99.90;;;;;;5070004;28;19950;-86
2021/10/06 15:15:37;;;;;;;;;;;15.70;99.90;;;;;;5069919;28;20337;-86